International TAF

Brunei, China, Hong Kong, Malaysia, Philippines, Taiwan

The availability of aerodrome forecasts from overseas locations is dependent on the regular international exchange of data. Some locations may at times be absent. If this problem persists, please advise webav@bom.gov.au

 back to top

ZSPD 06/07/2020 UTC

TAF AMD ZSPD 061844Z 0618/0718 23004MPS 6000 BKN015 TX31/0706Z
TN22/0620Z TEMPO 0618/0621 TSRA BKN008 SCT030CB OVC040 BECMG
0622/0623
29004MPS

WIDD 06/07/2020 UTC

TAF WIDD 061700Z 0618/0718 14004KT 9999 FEW014
PROB30 TEMPO 0621/0623 -RA SCT014

WAMM 06/07/2020 UTC

TAF WAMM 061700Z 0618/0724 VRB02KT 9999 FEW021

WBSB 06/07/2020 UTC

TAF WBSB 061700Z 0618/0800 25003KT 9999 SCT014
FEW015CB TEMPO 0619/0622 7000 SHRA TSRA
BECMG 0703/0705 32010KT SCT016 FEW017CB

WBKK 06/07/2020 UTC

TAF WBKK 061700Z 0618/0718 11005KT 9999 FEW014
BECMG 0700/0702 30005KT
PROB30 TEMPO 0707/0710 5000 RA FEW013 FEW017CB

WBGG 06/07/2020 UTC

TAF WBGG 061700Z 0618/0718 VRB03KT 9999 SCT020
TEMPO 0620/0700 4000 RA FEW005 FEW015CB

VHHH 06/07/2020 UTC

TAF VHHH 061700Z 0618/0724 20010KT 9999 FEW020 TX34/0706Z
TN28/0622Z TN29/0722Z TEMPO 0622/0704 4000 SHRA FEW010CB SCT020

VMMC 06/07/2020 UTC

TAF VMMC 061700Z 0618/0724 21010KT 9999 FEW015 SCT030
TEMPO 0620/0702 4000 SHRA FEW010CB SCT020

ZGSZ 06/07/2020 UTC

TAF ZGSZ 061505Z 0618/0718 18006MPS 8000 FEW020 TX32/0706Z
TN29/0622Z TEMPO 0620/0702 SHRA SCT020 FEW025CB

RCTP 06/07/2020 UTC

TAF RCTP 061700Z 0618/0724 20008KT 9999 FEW015 BKN200
BECMG 0700/0702 24015KT
TEMPO 0702/0708 25020KT
BECMG 0710/0712 23010KT
TEMPO 0712/0718 20005KT

RCKH 06/07/2020 UTC

TAF RCKH 061700Z 0618/0724 08005KT 9999 FEW015 BKN032
TEMPO 0620/0624 20005KT 5000 SHRA FEW012 FEW015CB BKN020
BKN050
BECMG 0700/0702 24005KT
TEMPO 0704/0710 27010KT FEW012 FEW015CB BKN020 BKN060
TEMPO 0710/0716 30005KT
BECMG 0718/0720 07005KT

ZGGG 06/07/2020 UTC

TAF ZGGG 061505Z 0618/0718 20004MPS 8000 SCT040 TX35/0707Z
TN28/0622Z

ZBAA 06/07/2020 UTC

TAF ZBAA 061504Z 0618/0718 18004MPS CAVOK TX34/0707Z TN21/0621Z

ZSSS 06/07/2020 UTC

TAF ZSSS 061516Z 0618/0718 22004MPS 6000 BKN015 TX30/0706Z
TN23/0620Z TEMPO 0618/0622 SHRA BKN007 FEW030CB BECMG 0620/0622
30004MPS BECMG 0708/0710 22004MPS

ZBTJ 06/07/2020 UTC

TAF ZBTJ 061505Z 0618/0718 15003MPS 3000 BR NSC TX32/0707Z
TN22/0621Z

ZBYN 06/07/2020 UTC

TAF ZBYN 061505Z 0618/0718 09003MPS 6000 NSC TX34/0707Z TN17/0621Z

ZSHC 06/07/2020 UTC

TAF ZSHC 061500Z 0618/0718 24003MPS 3000 -SHRA BR SCT010 BKN020
TX29/0706Z TN25/0621Z TEMPO 0618/0624 2000 SHRA SCT010 BKN020
FEW030CB
TEMPO 0700/0706 SHRA SCT010 BKN020 FEW030CB

ZSOF 06/07/2020 UTC

TAF ZSOF 061501Z 0618/0718 15003MPS 5000 BR NSC TX32/0707Z
TN23/0622Z

ZWWW 06/07/2020 UTC

TAF ZWWW 061501Z 0618/0718 18004MPS CAVOK TX27/0709Z TN18/0623Z
BECMG 0702/0703 36004MPS BECMG 0714/0715 18004MPS

ZYTL 06/07/2020 UTC

TAF ZYTL 061516Z 0618/0718 09004MPS 3000 BR SCT033 TX28/0706Z
TN19/0618Z TEMPO 0618/0624 1400 BKN003 BKN033 BECMG 0621/0622
34004MPS

RPLL 06/07/2020 UTC

TAF COR RPLL 060500Z 0606/0712 11006KT 9999 FEW025 SCT100 TX34/0606Z
TN27/0621Z TEMPO 0606/0612 12011KT 9000 -TSRA FEW022CB SCT023 BKN100
TEMPO 0612/0618 15007KT SCT023 BKN100

RPVM 06/07/2020 UTC

TAF RPVM 060500Z 0606/0712 06006KT 9999 FEW020 SCT300 TEMPO 0606/0612
15008KT -SHRA FEW018CB FEW020 BKN300 TEMPO 0612/0618 FEW018CB FEW020
SCT100

RPMZ 06/07/2020 UTC

TAF RPMZ 060500Z 0606/0706 11004KT 9000 FEW017 BKN090 TEMPO 0606/0612
13003KT FEW017 SCT090

Australian International

The availability of aerodrome forecasts from overseas locations is dependent on the regular international exchange of data. Some locations may at times be absent. If this problem persists, please advise webav@bom.gov.au

 back to top

YMML 06/07/2020 UTC

TAF YMML 061726Z 0618/0800
23006KT 9999 -DZ BKN010
BECMG 0700/0702 16010KT 9999 -DZ SCT005 BKN010
BECMG 0705/0707 18007KT 9999 NSW SCT020 BKN030
FM071400 VRB04KT 9999 SCT010
TEMPO 0618/0709 3000 DZ BKN005
PROB30 0718/0722 0500 FG
RMK
T 09 09 11 12 Q 1031 1032 1033 1032

YSSY 06/07/2020 UTC

TAF YSSY 061731Z 0618/0800
29008KT 9999 FEW045
FM070000 17012KT 9999 SCT035
FM070600 16012KT 9999 -SHRA SCT020 BKN040
FM071500 16008KT 9999 NSW SCT025
INTER 0707/0712 4000 SHRA BKN012
RMK
T 11 10 14 17 Q 1028 1029 1030 1028

YBBN 06/07/2020 UTC

TAF YBBN 061700Z 0618/0800
21008KT CAVOK
FM070200 13012KT 9999 SCT030
FM071000 20006KT 9999 FEW025
RMK
T 10 10 18 20 Q 1025 1026 1027 1025

YSCB 06/07/2020 UTC

TAF AMD YSCB 062017Z 0620/0718
VRB05KT 9999 SCT010
FM070100 16007KT 9999 SCT020
PROB30 0620/0622 0300 FG BKN001
PROB30 0711/0718 0300 FG BKN001
RMK
T M02 05 12 13 Q 1029 1031 1029 1028

YBCS 06/07/2020 UTC

TAF YBCS 061701Z 0618/0718
17010KT 9999 SCT025 BKN060
FM070000 12016KT 9999 SCT050
FM070800 16008KT 9999 SCT030
INTER 0618/0622 3000 SHRA SCT015
RMK
T 20 21 24 25 Q 1017 1018 1019 1017

YBAS 06/07/2020 UTC

TAF YBAS 061704Z 0618/0718
VRB05KT CAVOK
FM070000 09010KT CAVOK
FM070800 13006KT CAVOK
FM071500 VRB05KT CAVOK
RMK
T 01 00 08 14 Q 1025 1026 1027 1025

YBMA 06/07/2020 UTC

TAF YBMA 061639Z 0618/0706
17006KT CAVOK
FM070000 12010KT CAVOK
RMK
T 11 09 18 23 Q 1021 1022 1023 1021

YPAD 06/07/2020 UTC

TAF YPAD 061656Z 0618/0800
10008KT 9999 BKN030
FM070300 06005KT 9999 BKN040
RMK
T 09 09 10 13 Q 1032 1032 1033 1031

YPDN 06/07/2020 UTC

TAF YPDN 061702Z 0618/0800
14008KT CAVOK
FM070000 12014KT CAVOK
FM070800 35008KT CAVOK
FM071400 14008KT CAVOK
RMK
T 22 21 24 29 Q 1014 1015 1016 1014

YPTN 06/07/2020 UTC

TAF YPTN 061705Z 0618/0718
13006KT CAVOK
FM070000 11014KT CAVOK
FM070800 12008KT CAVOK
RMK
T 13 12 21 27 Q 1017 1017 1018 1016

YPPH 06/07/2020 UTC

TAF AMD YPPH 061704Z 0618/0800
28007KT 9999 -SHRA BKN035
FM070200 28014KT 9999 -SHRA BKN035
FM070900 27007KT 9999 -SHRA BKN030
BECMG 0718/0720 08005KT 9999 NSW SCT040
INTER 0713/0715 4000 SHRA BKN015
RMK
T 14 13 13 17 Q 1020 1020 1022 1022

YPLM 06/07/2020 UTC

TAF YPLM 061715Z 0618/0718
22005KT CAVOK
FM070100 10008KT CAVOK
FM070500 05010KT CAVOK
FM070700 35007KT CAVOK
FM071500 22007KT CAVOK
RMK
T 16 15 16 23 Q 1019 1018 1020 1020

YCAR 06/07/2020 UTC

TAF YCAR 062008Z 0622/0711
14010KT CAVOK
FM070100 15014KT CAVOK
FM070600 17016KT CAVOK
RMK
T 13 18 22 22 Q 1021 1023 1022 1020

YPCC 06/07/2020 UTC

TAF AMD YPCC 061726Z 0618/0718
11012KT 9999 -SHRA SCT020
INTER 0618/0703 4000 SHRA BKN012
INTER 0712/0718 4000 SHRA BKN012
RMK
T 27 27 27 28 Q 1012 1011 1011 1013

YPPD 06/07/2020 UTC

TAF YPPD 061715Z 0618/0718
15007KT CAVOK
FM070000 09016KT CAVOK
FM070600 03012KT CAVOK
FM071000 03005KT CAVOK
RMK
T 15 14 19 28 Q 1018 1018 1020 1019

YBTL 06/07/2020 UTC

TAF YBTL 061701Z 0618/0718
19005KT 9999 FEW020 SCT035
FM070000 13008KT 9999 SCT040
FM070300 09014KT 9999 SCT050
FM071000 13006KT 9999 FEW040
RMK
T 16 16 22 25 Q 1020 1021 1022 1020

YMHB 06/07/2020 UTC

TAF YMHB 061726Z 0618/0718
23008KT 9999 -SHRA SCT030
FM070300 22006KT 9999 NSW SCT035
FM070900 32005KT CAVOK
RMK
T 06 06 07 09 Q 1031 1033 1034 1033

YPXM 06/07/2020 UTC

TAF AMD YPXM 061716Z 0618/0718
10013KT 9999 BKN015
FM070300 10013KT 9999 SCT018
INTER 0618/0700 4000 SHRA BKN008
TEMPO 0618/0703 9999 BKN012
RMK
T 25 25 25 26 Q 1013 1012 1013 1014

New Zealand

The availability of aerodrome forecasts from overseas locations is dependent on the regular international exchange of data. Some locations may at times be absent. If this problem persists, please advise webav@bom.gov.au

 back to top

NZAA 06/07/2020 UTC

TAF NZAA 061707Z 0618/0718 34008KT 9999 -SHRA SCT025 BKN035
BECMG 0618/0620 27020G30KT
TEMPO 0618/0703 5000 SHRA FEW020TCU
BECMG 0704/0706 27015KT
BECMG 0706/0708 34008KT
TEMPO 0711/0718 5000 SHRA FEW020TCU
BECMG 0714/0716 28012KT
PROB30 TEMPO 0714/0718 30025G40KT 2500 +SHRAGS SCT020CB

NZWN 06/07/2020 UTC

TAF NZWN 061707Z 0618/0718 35015KT 9999 FEW020 BKN030
TEMPO 0618/0621 6000 SHRA BKN014
BECMG 0620/0622 22008KT
BECMG 0623/0701 34010KT
TEMPO 0706/0709 7000 SHRA
FM071400 18012KT 9999 -SHRA FEW015 BKN025
TEMPO 0715/0718 6000 SHRA BKN014

NZCH 06/07/2020 UTC

TAF AMD NZCH 061859Z 0618/0718 29005KT 9999 SCT040
FM061930 24015KT 9999 -RA SCT030 BKN040
TEMPO 0621/0701 5000 RA BKN014
FM070600 24005KT 9999 SCT040
FM071800 22015KT 9999 FEW010 BKN020

YLHI 06/07/2020 UTC

TAF YLHI 061650Z 0618/0718
20012KT 9999 -SHRA SCT030 SCT045
FM062300 21014G25KT 9999 -SHRA SCT030 SCT045
FM071200 21012KT 9999 -SHRA SCT030
INTER 0618/0712 4000 SHRA SCT015 BKN020
RMK FM070600 MOD TURB BLW 5000FT
T 17 17 18 18 Q 1022 1023 1023 1021

YSNF 06/07/2020 UTC

TAF AMD YSNF 061813Z 0618/0718
24014G25KT 9999 -SHRA SCT025
INTER 0618/0718 4000 SHRA SCT015 BKN025
RMK
T 16 16 18 17 Q 1018 1020 1019 1018

Indonesia, Malaysia, Myanmar, Singapore, Thailand, Vietnam

The availability of aerodrome forecasts from overseas locations is dependent on the regular international exchange of data. Some locations may at times be absent. If this problem persists, please advise webav@bom.gov.au

 back to top

WADA

TAF not available.

WAAA 06/07/2020 UTC

TAF WAAA 061700Z 0618/0800 20004KT 8000 SCT019
TEMPO 0618/0622 -RA
BECMG 0701/0703 30010KT 9999

WIII 06/07/2020 UTC

TAF WIII 061700Z 0618/0800 13005KT 6000 SCT020
TEMPO 0618/0622 4000 -TSRA FEW015CB

WIHH 06/07/2020 UTC

TAF WIHH 061700Z 0618/0718 12006KT 5000 HZ SCT020 TEMPO 0618/0620 09007KT 4000 -RA BECMG
0703/0705 18010KT 6000

WIMM 06/07/2020 UTC

TAF WIMM 061700Z 0618/0718 VRB04KT 4000 BR SCT018
BECMG 0702/0704 10009KT 9000
TEMPO 0710/0714 22015KT 4000 -TSRA FEW016CB
BECMG 0714/0715 VRB05KT SCT017

WIPP 06/07/2020 UTC

TAF WIPP 061700Z 0618/0718 14006KT 9999 SCT010
TEMPO 0621/0624 4000 BR
TEMPO 0705/0709 5000 -RA FEW010CB BKN010

WIKD

TAF not available.

WARR 06/07/2020 UTC

TAF WARR 061700Z 0618/0718 24005KT 4000 HZ SCT020
PROB40 TEMPO 0618/0622 4000 TSRA FEW018CB
BECMG 0700/0702 09010KT 9999 NSW

WADD 06/07/2020 UTC

TAF WADD 061700Z 0618/0718 11012KT 9999 SCT017
TEMPO 0620/0700 BKN016

WRRA

TAF not available.

WALL 06/07/2020 UTC

TAF WALL 061700Z 0618/0724 25004KT 9000 SCT018

WSSS 06/07/2020 UTC

TAF WSSS 061700Z 0618/0800 16007KT 9999 FEW015
SCT020 TEMPO 0702/0705 3000 TSRA FEW012CB BKN015

WSAP 06/07/2020 UTC

TAF WSAP 061700Z 0618/0800 16007KT 9999 FEW015
SCT020 TEMPO 0702/0705 3000 TSRA FEW012CB BKN015

WMKK 06/07/2020 UTC

TAF WMKK 061700Z 0618/0800 VRB02KT 8000 FEW008
FEW017CB SCT028 BECMG 0623/0701 14006KT FEW010
PROB30 TEMPO 0707/0712 4000 TSRA FEW017CB SCT018

WMSA 06/07/2020 UTC

TAF WMSA 061700Z 0618/0718 VRB03KT 9999 FEW017CB
BECMG 0618/0620 8000 FEW026
TEMPO 0707/0711 16006G20KT 4000 TSRA FEW007
FEW016CB SCT020

WMKP 06/07/2020 UTC

TAF WMKP 061700Z 0618/0718 VRB03KT 8000 FEW025
TEMPO 0618/0622 6000 -TSRA FEW017CB
BECMG 0704/0706 22006KT 9999 FEW020
TEMPO 0708/0712 6000 -TSRA FEW010 FEW017CB
BECMG 0710/0712 VRB03KT FEW025

WMKJ 06/07/2020 UTC

TAF WMKJ 061700Z 0618/0718 VRB03KT 9000 FEW010
BECMG 0621/0623 VRB01KT 4000 BR FEW007
TEMPO 0701/0705 13005G20KT 9999 NSW FEW018
TEMPO 0706/0711 12006G20KT 4000 TSRA FEW017CB SCT018

WMKD 06/07/2020 UTC

TAF WMKD 061700Z 0618/0718 VRB03KT 9999 FEW024
BECMG 0700/0701 FEW020
TEMPO 0708/0712 7000 -TSRA FEW017CB

WMKB 06/07/2020 UTC

TAF WMKB 061700Z 0618/0718 08005KT 8000 FEW019
BECMG 0704/0706 30010KT
TEMPO 0705/0709 5000 TSRA FEW017CB

VTBD 06/07/2020 UTC

TAF VTBD 061700Z 0618/0724 20005KT 9999 FEW020 SCT100
BECMG 0621/0623 13005KT
BECMG 0702/0704 21008KT
TEMPO 0708/0714 20010G25KT 4000 TSRA FEW018CB SCT030 BKN080

VTBS 06/07/2020 UTC

TAF VTBS 061700Z 0618/0724 19005KT 9999 FEW020 SCT100
BECMG 0621/0623 12005KT
BECMG 0702/0704 20008KT
TEMPO 0708/0714 20010G25KT 4000 TSRA FEW018CB SCT030 BKN080

VTBU 06/07/2020 UTC

TAF VTBU 061700Z 0618/0718 36004KT 9999 FEW020
BECMG 0701/0703 22010KT
BECMG 0714/0716 01004KT

VTCC 06/07/2020 UTC

TAF VTCC 061700Z 0618/0724 22005KT 9999 FEW035
TEMPO 0712/0715 24015G25KT 4000 TSRA FEW025CB BKN030

VTSP 06/07/2020 UTC

TAF VTSP 061700Z 0618/0724 00000KT 9999 FEW020
BECMG 0700/0702 28006KT
TEMPO 0704/0710 28015G25KT 5000 TSRA FEW018CB SCT020 BKN100
BECMG 0712/0714 00000KT

VTSS 06/07/2020 UTC

TAF VTSS 061700Z 0618/0718 24003KT 9999 FEW020 SCT100
TEMPO 0706/0712 24010G20KT 5000 TSRA FEW016CB SCT018 BKN100

VVTS 06/07/2020 UTC

TAF VVTS 061700Z 0618/0724 VRB02KT 9999 SCT017 SCT040
BECMG 0701/0702 15010KT
TEMPO 0704/0709 14015G28KT 3000 TSRA BKN015 SCT017CB

VDPP 06/07/2020 UTC

TAF VDPP 061700Z 0618/0712 19008KT 9999 SCT017
TEMPO 0706/0711 SCT015 FEW017CB SCT040

VVNB 06/07/2020 UTC

TAF VVNB 061700Z 0618/0718 09005KT 9999 SCT025
TEMPO 0618/0622 4000 TSRA SCT015 FEW027CB
TEMPO 0710/0714 4000 TSRA SCT015 FEW027CB BKN040

VYYY 06/07/2020 UTC

TAF VYYY 061700Z 0618/0718 24008KT 7000 BKN017 FEW022CB BKN100
BECMG 0701/0704 15010KT 3000 -SHRA
TEMPO 0706/0712 22010KT 4000 -RA BKN010 FEW017CB OVC090

South America

The availability of aerodrome forecasts from overseas locations is dependent on the regular international exchange of data. Some locations may at times be absent. If this problem persists, please advise webav@bom.gov.au

 back to top

SAEZ 06/07/2020 UTC

TAF SAEZ 061700Z 0618/0718 18005KT 9999 SCT030 TX10/0718Z
TN03/0711Z
BECMG 0620/0622 14005KT
BECMG 0703/0705 09005KT SCT020
BECMG 0706/0709 09010KT BKN020
BECMG 0712/0714 5000 -RADZ OVC020

SAVC 06/07/2020 UTC

TAF SAVC 061700Z 0618/0718 VRB05KT 9999 SCT020 FEW030TCU BKN100
TX05/0618Z TNM01/0702Z
BECMG 0702/0704 36008KT CAVOK
BECMG 0709/0711 05010G20KT

SCIE 06/07/2020 UTC

TAF SCIE 061644Z 0618/0718 22008KT CAVOK TX12/0618Z TN04/0706Z
BECMG 0623/0701 14004KT
TEMPO 0703/0709 05004KT 4000 BR NSC
BECMG 0706/0708 10004KT
BECMG 0712/0714 01012KT FEW020 BKN080

SACO 06/07/2020 UTC

TAF SACO 061700Z 0618/0718 VRB03KT 8000 HZ BKN030 BKN060
TX12/0718Z
TN02/0710Z
BECMG 0621/0624 07010KT 8000 HZ BKN025 OVC060
BECMG 0708/0711 20005KT 5000 BR BKN012 OVC060
BECMG 0714/0716 14005KT 9999 NSW BKN025 OVC060

SCIP 06/07/2020 UTC

TAF COR SCIP 061713Z 0618/0718 11010KT 9999 FEW025 SCT040
TX22/0619Z TN16/0709Z
BECMG 0702/0704 08008KT
TEMPO 0704/0714 04010KT 7000 -SHRA SCT015 BKN040
BECMG 0714/0716 05010KT

SAZM 06/07/2020 UTC

TAF SAZM 061700Z 0618/0718 20010KT 8000 FEW020 BKN025 TX09/0718Z
TN04/0710Z PROB30
TEMPO 0619/0621 6000 SHRA BKN030 FEW040TCU
BECMG 0622/0701 14005KT 8000 OVC010

SAME 06/07/2020 UTC

TAF SAME 061700Z 0618/0718 14005KT 9999 SCT030 OVC050 TX09/0620Z
TN00/0710Z

SUMU 06/07/2020 UTC

TAF SUMU 061730Z 0618/0718 17007KT 9999 SCT017 TX11/0718Z TN05/0710Z
PROB40 TEMPO 0700/0711 3000 BR SCT010

SAZN 06/07/2020 UTC

TAF AMD SAZN 061700Z 0618/0718 VRB05KT 7000 -DZ SCT015 BKN050
TX06/0718Z TNM01/0712Z
BECMG 0619/0621 11010KT
BECMG 0623/0601 BKN010 OVC050
BECMG 0706/0709 09010KT 2000 BR NSC
BECMG 0712/0714 VRB05KT CAVOK

SCTE 06/07/2020 UTC

TAF SCTE 061610Z 0618/0718 VRB03KT CAVOK
TX09/0619Z TN01/0712Z
BECMG 0623/0701 03005KT
TEMPO 0703/0706 3000 BR NSC
BECMG 0710/0712 01015KT SCT035 BKN090
BECMG 0715/0717 01020G30KT 7000 -RA BKN030 BKN060

SCCI 06/07/2020 UTC

TAF SCCI 061656Z 0618/0718 01007KT 9999 SCT009
TNM02/0712Z TX01/0718Z
TEMPO 0618/0700 VRB05KT 5000 BCFG OVC005
BECMG 0711/0713 03015KT 7000 BR SCT005 BKN030

SAWG 06/07/2020 UTC

TAF SAWG 061700Z 0618/0718 02008KT 8000 SCT040 SCT100 TXM00/0718Z
TNM09/0706Z
BECMG 0620/0623 02005G15KT CAVOK
TEMPO 0703/0708 0300 FZFG
BECMG 0715/0718 02015G30KT 9999 FEW020 SCT050

SAAR 06/07/2020 UTC

TAF SAAR 061700Z 0618/0718 11010KT CAVOK TX14/0618Z TN03/0709Z
BECMG 0710/0712 14010KT BKN040

SAZS 06/07/2020 UTC

TAF SAZS 061700Z 0618/0718 13010KT 9999 SCT030 TX03/0618Z
TNM05/0710Z
BECMG 0622/0700 16010KT
BECMG 0712/0714 VRB05KT BKN020 BKN050

SCEL 06/07/2020 UTC

TAF SCEL 061644Z 0618/0718 16004KT CAVOK TX13/0618Z TN05/0711Z
BECMG 0620/0622 19008KT SCT140 BKN200
BECMG 0704/0706 VRB02KT 6000 NSC
TEMPO 0704/0709 1500 BR SCT002 BKN200
BECMG 0711/0713 4000 BR BKN130

SAWH 06/07/2020 UTC

TAF SAWH 061700Z 0618/0718 36005G15KT CAVOK TX03/0718Z TNM03/0710Z
BECMG 0706/0709 02010G20KT
TEMPO 0709/0712 7000 SN SCT020 SCT040
BECMG 0712/0715 36015G30KT 9999 SCT035

Guam, Japan, Korea

The availability of aerodrome forecasts from overseas locations is dependent on the regular international exchange of data. Some locations may at times be absent. If this problem persists, please advise webav@bom.gov.au

 back to top

PGUA 06/07/2020 UTC

TAF PGUA 061800Z 0618/0724 10009KT 9999 SCT019 QNH2986INS
TEMPO 0618/0624 BKN015 TX30/0703Z TN25/0715Z

PGUM 06/07/2020 UTC

TAF PGUM 061732Z 0618/0724 11006KT P6SM FEW018 FEW040

PGSN 06/07/2020 UTC

TAF PGSN 061732Z 0618/0718 10007KT P6SM FEW018 SCT040

PTRO 06/07/2020 UTC

TAF PTRO 061732Z 0618/0718 11004KT P6SM VCSH SCT016 SCT050

RJOO

06/07/2020 UTC

TAF RJOO 061707Z 0618/0800 22012KT 6000 -SHRA FEW005 SCT008 BKN015
TEMPO 0618/0622 FEW002 BKN008 BKN015 TEMPO 0622/0701 3000
SHRA BR FEW002 BKN008 BKN015 BECMG 0709/0712 24008KT BECMG
0718/0721 08007KT TEMPO 0718/0800 3000 SHRA BR FEW005
BKN008 BKN015

RJOB 06/07/2020 UTC

TAF RJOB 061714Z 0618/0800 21004KT 4000 -SHRA BR FEW001 SCT005
BKN008 TEMPO 0618/0621 2000 SHRA BR BCFG FEW000 SCT001
BKN002 BECMG 0621/0623 24014KT 9999 -SHRA FEW005 SCT008
BKN015 TEMPO 0623/0702 23015G25KT BECMG 0712/0715 13004KT
TEMPO 0715/0800 2000 SHRA BR BCFG FEW000 BKN008 BKN015

RJGG 06/07/2020 UTC

TAF RJGG 061705Z 0618/0800 16012KT 9999 FEW008 BKN015 TEMPO
0700/0703 4000 -SHRA BR TEMPO 0721/0800 3000 -SHRA BR
FEW004 BKN008

RJCC 06/07/2020 UTC

TAF RJCC 061705Z 0618/0800 17007KT 7000 FEW003 BKN006 TEMPO
0618/0700 0700 -SHRA FG VV001 TEMPO 0700/0703 2000 -SHRA BR
FEW001 BKN003 TEMPO 0709/0715 3000 -SHRA BR FEW002 BKN004
FEW025CB TEMPO 0715/0721 1500 -TSRA BR FEW001 BKN003
FEW025CB TEMPO 0721/0800 1500 BR FEW001 BKN003

RJSS 06/07/2020 UTC

TAF RJSS 061714Z 0618/0800 16005KT 6000 -SHRA FEW005 BKN015 BKN020
TEMPO 0618/0700 1500 -SHRA BR FEW002 BKN005 BKN008 TEMPO
0704/0709 4000 SHRA BR BECMG 0712/0715 22006KT

RJFK 06/07/2020 UTC

TAF RJFK 061705Z 0618/0800 22010KT 7000 -SHRA FEW005 SCT010 BKN015
TEMPO 0618/0621 4000 -SHRA BR FEW002 BKN005 BKN010 TEMPO
0621/0703 3000 TSRA BR FEW002 BKN005 BKN010 FEW020CB TEMPO
0703/0709 3000 SHRA BR FEW002 BKN008 BKN015 TEMPO 0709/0715
1500 +TSRA BR FEW002 BKN005 BKN010 FEW020CB TEMPO 0715/0800
3000 SHRA BR FEW002 BKN008 BKN015

RJAA 06/07/2020 UTC

TAF RJAA 061705Z 0618/0800 18010KT 9999 -SHRA FEW010 BKN020 TEMPO
0700/0709 21016G28KT

RJBB 06/07/2020 UTC

TAF AMD RJBB 062041Z 0620/0800 20028KT 9000 -SHRA FEW008 SCT015
BKN040 TEMPO 0620/0623 20036G50KT TEMPO 0623/0702
20036G50KT 4000 SHRA BR BECMG 0709/0712 20017KT TEMPO
0718/0800 3000 SHRA BR FEW005 BKN008 BKN015

RJTT 06/07/2020 UTC

TAF RJTT 061705Z 0618/0800 20022G32KT 9999 FEW010 BKN030 TEMPO
0619/0621 FEW005 BKN008

RJFF 06/07/2020 UTC

TAF AMD RJFF 061921Z 0619/0800 33006KT 7000 -SHRA FEW005 SCT010
BKN020 TEMPO 0619/0703 3000 TSRA BR FEW005 BKN008 BKN015
FEW020CB BECMG 0703/0705 14008KT TEMPO 0712/0718 3000 SHRA
BR BECMG 0718/0721 31005KT

RJFT 06/07/2020 UTC

TAF RJFT 061705Z 0618/0800 20012KT 6000 -SHRA FEW003 SCT008 BKN010
TEMPO 0618/0621 3000 SHRA BR FEW003 BKN005 BKN008 TEMPO
0621/0706 1500 +TSRA BR FEW001 BKN003 BKN008 FEW020CB TEMPO
0706/0712 3000 SHRA BR FEW003 BKN005 BKN008 TEMPO 0712/0715
3000 TSRA BR FEW001 BKN005 BKN008 FEW020CB TEMPO 0715/0800
1500 +SHRA BR FEW001 BKN003 BKN008

RJFU 06/07/2020 UTC

TAF AMD RJFU 062125Z 0621/0800 21017KT 6000 -SHRA FEW005 SCT008
BKN015 TEMPO 0621/0704 21020G30KT 1500 +TSRA BR FEW003
BKN008 BKN015 FEW020CB TEMPO 0704/0709 4000 -SHRA BR FEW003
BKN008 BKN015 TEMPO 0709/0715 1500 +TSRA BR FEW003 BKN008
BKN015 FEW020CB TEMPO 0715/0721 1500 SHRA BR FEW003 BKN008
BKN015 BECMG 0718/0721 28006KT

ROAH 06/07/2020 UTC

TAF ROAH 061705Z 0618/0800 19013KT 9999 FEW015 SCT025

RKSS 06/07/2020 UTC

TAF AMD RKSS 061827Z 0618/0724 22005KT 9999 BKN030
TN21/0620Z TX28/0706Z TN20/0720Z
TEMPO 0620/0621 25006KT -RA
BECMG 0702/0703 28008KT SCT030
BECMG 0715/0716 34005KT 4000 BR SCT010
BECMG 0721/0722 03005KT 6000 NSW FEW030

RKSI 06/07/2020 UTC

TAF RKSI 061700Z 0618/0724 23005KT 9999 BKN030
TN20/0620Z TX26/0705Z TN20/0720Z
TEMPO 0618/0621 4000 -RA SCT015CB BKN025
BECMG 0623/0624 29010KT SCT030
BECMG 0714/0715 35006KT

RKSM 06/07/2020 UTC

TAF RKSM 061700Z 0618/0724 27006KT 9999 BKN030 BECMG 0711/0712
30006KT 9999 SCT030 TN21/0621Z TX29/0706Z

RKPK 06/07/2020 UTC

TAF AMD RKPK 061940Z 0619/0724 23006KT 6000 SCT025 BKN200
TX26/0705Z TN21/0720Z
BECMG 0701/0702 19010KT
BECMG 0705/0706 4800 -RA BR SCT015 BKN030
BECMG 0708/0709 05008KT
BECMG 0714/0715 02008KT 6000 NSW BKN030

RKPC 06/07/2020 UTC

TAF RKPC 061700Z 0618/0724 28007KT 3000 -RA BKN002 BKN025 OVC080
TN21/0620Z TX25/0705Z TN21/0720Z
BECMG 0622/0623 BKN003 BKN025 OVC080
BECMG 0700/0701 01007KT 6000 NSW FEW010 BKN025 OVC100
BECMG 0711/0712 27007KT 4000 BR
BECMG 0718/0719 2000
BECMG 0723/0724 33008KT 6000 NSW SCT030

Indonesia, Pakistan, Singapore, India, Sri Lanka, United Arab Emirates

The availability of aerodrome forecasts from overseas locations is dependent on the regular international exchange of data. Some locations may at times be absent. If this problem persists, please advise webav@bom.gov.au

 back to top

WIII 06/07/2020 UTC

TAF WIII 061700Z 0618/0800 13005KT 6000 SCT020
TEMPO 0618/0622 4000 -TSRA FEW015CB

WSSS 06/07/2020 UTC

TAF WSSS 061700Z 0618/0800 16007KT 9999 FEW015
SCT020 TEMPO 0702/0705 3000 TSRA FEW012CB BKN015

VCBI 06/07/2020 UTC

TAF VCBI 061700Z 0618/0724 23010KT 9999 FEW018 TX31/0707Z
TN27/0700Z PROB30
TEMPO 0619/0623 8000 -SHRA FEW012 BKN016

VECC 06/07/2020 UTC

TAF VECC 061100Z 0612/0718 13007KT 3500 -RA HZ SCT018 BKN090
BECMG 0622/0624 2800 -RA HZ
TEMPO 0700/0704 1500 TSRA SCT015 FEW025CB OVC090
BECMG 0704/0706 17006KT 3500 -RA HZ
TEMPO 0712/0716 1500 TSRA SCT015 FEW025CB OVC090

VOMM 06/07/2020 UTC

TAF VOMM 061700Z 0618/0724 23010KT 5000 BR SCT020 BKN100
TEMPO 0618/0621 SCT018 FEW025TCU/CB BKN100
BECMG 0703/0704 6000
BECMG 0712/0713 16010KT
TEMPO 0712/0718 SCT018 FEW025TCU/CB BKN100
BECMG 0718/0719 23010KT 5000 HZ

VOTV 06/07/2020 UTC

TAF VOTV 061700Z 0618/0724 35004KT 3000 BR SCT015 FEW025CB BKN080
TEMPO 0622/0702 2500 RA BR SCT012 FEW025CB BKN080
BECMG 0703/0704 32005KT 5000 HZ SCT015 BKN080
TEMPO 0711/0716 2500 RA SCT012 FEW025CB BKN080
BECMG 0716/1717 3000 BR SCT015 FEW025CB SCT080

VABB 06/07/2020 UTC

TAF VABB 060500Z 0606/0712 23010G20KT 3000 HZ -RA SCT018 SCT025
BKN090 TEMPO 0609/0618 1500 TSRA SHRA FEW012 SCT018 FEW030TCU/CB
OVC080 BECMG 0616/0618 21012KT 2500 -RA HZ TEMPO 0621/0706 1500
TSRA SHRA FEW012 SCT018 FEW030TCU/CB OVC080 BECMG 0702/0704 3000
HZ -DZ BECMG 0706/0708 24008G18KT TEMPO 0709/0718 1500 TSRA SHRA
FEW012 SCT018 FEW030TCU/CB OVC080

VAAH 06/07/2020 UTC

TAF VAAH 061100Z 0612/0718 11010KT 4000 DZHZ SCT012 SCT018 BKN080
BECMG 0701/0703 2000 BECMG 0704/0706 4000 HZ BECMG 0707/0709
14008KT TEMPO 0704/0709 13008G18KT 2000 TSRA SCT012 SCT018
FEW030CB BKN080 BECMG 0710/0712 14008KT 3000 RAHZ SCT012 SCT018
BKN080

VILK 06/07/2020 UTC

TAF VILK 061700Z 0618/0724 09004KT 2000 -TSRA -RA BKN015 OVC090
TEMPO 0618/0622 FEW030CB
BECMG 0701/0703 2500 -RA -DZ SCT010 SCT015 OVC080
BECMG 0704/0706 2500 BR
TEMPO 0709/0713 1000 -TSRA -RA FEW030CB
BECMG 0715/0717 2000 BR SCT020 OVC090
TEMPO 0720/0724 1500 -TSRA -RA SCT015 FEW030CB OVC080

VANP 06/07/2020 UTC

TAF VANP 061100Z 0612/0718 25005KT 2500 -TSRA FEW012 SCT018 FEW030CB
BKN090
TEMPO 0614/0617 32010G20KT 1500 TSRA FEW010 SCT015 FEW030CB
OVC080 BECMG 0618/0620 23005KT 2500 HZ -RA FEW012 SCT015 BKN080
BECMG 0704/0706 23005KT 3000 HZ -RA FEW012 SCT015 BKN090 TEMPO
0710/0714 32010G25KT 1500 TSRA FEW010 SCT015 FEW030CB OVC080

VRMM 06/07/2020 UTC

TAF VRMM 061700Z 0618/0724 18007KT 9000 FEW017TCU BKN120 TEMPO
0618/0624 25015G30KT 4000 SHRA SCT016CB

VOHS 06/07/2020 UTC

TAF VOHS 061700Z 0618/0724 23006KT 5000 DZ BR HZ SCT015 BKN080 TEMPO
0623/0704 VRB03KT 3000 -RA BKN010 FEW030CB BECMG 0703/0705 23010KT
6000 SCT015 BKN100 TEMPO 0709/0716 FEW030CB BECMG 0718/0720 25005KT
5000 DZ BR HZ SCT015 BKN080

OPKC 06/07/2020 UTC

TAF OPKC 061530Z 0618/0724 27005G15KT 6000 SCT020 BKN100 TEMPO
0618/0624 28005G15KT 3000 -RA
FEW020 SCT030 BKN100 FM070600 26008G18KT 6000 SCT020 BKN100 TEMPO
0709/0713 34020G30KT TSRA FEW025CB SCT030 OVC080

OBBI 06/07/2020 UTC

TAF OBBI 061700Z 0618/0800 VRB05KT CAVOK BECMG 0710/0712 04010KT
BECMG 0713/0715 VRB05KT

OMAA 06/07/2020 UTC

TAF OMAA 061700Z 0618/0800 VRB02KT CAVOK
BECMG 0619/0621 15005KT
BECMG 0706/0708 32012KT
BECMG 0719/0721 08005KT

OMDB 06/07/2020 UTC

TAF OMDB 061652Z 0618/0800 14005KT CAVOK
BECMG 0708/0710 33013KT
BECMG 0715/0717 06005KT

OOMS 06/07/2020 UTC

TAF OOMS 061700Z 0618/0724 VRB02KT 8000 NSC TEMPO 0618/0620 21016KT
PROB30 TEMPO 0621/0701 SCT020 BECMG 0706/0708 05012KT BECMG
0716/0718 VRB02KT

OMSJ 06/07/2020 UTC

TAF OMSJ 061652Z 0618/0800 14005KT CAVOK
BECMG 0708/0710 34014KT
BECMG 0716/0718 08005KT

Malawi, Mauritius, South Africa, Zambia, Zimbabwe

The availability of aerodrome forecasts from overseas locations is dependent on the regular international exchange of data. Some locations may at times be absent. If this problem persists, please advise webav@bom.gov.au

 back to top

FIMP 06/07/2020 UTC

TAF FIMP 061715Z 0618/0800 09008KT 9999 SCT016 TEMPO 0618/0706
7000 -SHRA FEW010 BKN014 BECMG 0710/0712 13012KT

FMEE 06/07/2020 UTC

TAF FMEE 061700Z 0618/0724 11010KT 9999 F

FLKK 06/07/2020 UTC

TAF FLKK 061000Z 0612/0718 09010KT 9999 SCT045
FM061800 10010G15KT CAVOK
BECMG 0708/0710 9999 SCT035
BECMG 0714/0716 12005KT CAVOK

FWKI 06/07/2020 UTC

TAF FWKI 061500Z 0618/0724 10010KT CAVOK PROB30 TEMPO 0703/0705
VRB02KT 7000 BCFG BECMG 0707/0709 08010KT 9999 FEW020 FM071400
08010KT CAVOK

FAOR 06/07/2020 UTC

TAF FAOR 061600Z 0618/0724 34009KT CAVOK
TX20/0713Z TN07/0704Z
BECMG 0619/0621 VRB03KT
BECMG 0707/0709 21010KT
BECMG 0720/0722 10013KT

FVHA

TAF not available.

FAWK 06/07/2020 UTC

TAF FAWK 061800Z 0619/0706 NIL

FABL 06/07/2020 UTC

TAF FABL 061600Z 0618/0718 VRB03KT CAVOK TX21/0713Z TNM03/07619/0621
VRB03KT
BECMG 0707/0709 21010KT
BECMG 0720/0722 10013KT

FALE 06/07/2020 UTC

TAF FALE 061600Z 0618/0724 33003KT CAVOK
TX23/0712Z TN09/0704Z
BECMG 0703/0705 25005KT
FM070900 18020G30KT 9999 SCT025
PROB30 TEMPO 0715/0724 5000 RA BKN015

YPCC 06/07/2020 UTC

TAF AMD YPCC 061726Z 0618/0718
11012KT 9999 -SHRA SCT020
INTER 0618/0703 4000 SHRA BKN012
INTER 0712/0718 4000 SHRA BKN012
RMK
T 27 27 27 28 Q 1012 1011 1011 1013

United States (includes Hawaii) and Mexican emergency/alternates

The availability of aerodrome forecasts from overseas locations is dependent on the regular international exchange of data. Some locations may at times be absent. If this problem persists, please advise webav@bom.gov.au

 back to top

PHNL 06/07/2020 UTC

TAF PHNL 062031Z 0620/0724 06010KT P6SM FEW025 SCT045
FM062200 06012G20KT P6SM FEW025 SCT045
FM070600 06010KT P6SM FEW025 SCT045
FM071200 06004KT P6SM FEW025
FM072200 06010G18KT P6SM FEW025 SCT045

PHLI 06/07/2020 UTC

TAF PHLI 061740Z 0618/0718 08012KT P6SM VCSH FEW015 SCT025 BKN040
FM071200 05010KT P6SM -SHRA SCT025 OVC040

PHOG 06/07/2020 UTC

TAF PHOG 061740Z 0618/0718 05010KT P6SM FEW030
FM062000 05018G24KT P6SM FEW030 SCT050
FM070400 05014KT P6SM FEW030 SCT050
FM071200 05008KT P6SM FEW030
AMD LTD TO VIS AND WIND 0709/0716

PHTO 06/07/2020 UTC

TAF PHTO 061740Z 0618/0718 23005KT P6SM FEW030 SCT060
FM062200 05011KT P6SM SCT030 BKN060
FM070400 34005KT P6SM VCSH SCT030 BKN060
FM071200 24008KT P6SM -SHRA SCT020 OVC045

PKMJ 06/07/2020 UTC

TAF PKMJ 061732Z 0618/0718 08010KT P6SM VCSH SCT017 BKN050 BKN110
TEMPO 0618/0621 13008KT 3SM SHRA SCT014 BKN025

KLAX 06/07/2020 UTC

TAF KLAX 062008Z 0620/0724 26012KT P6SM SKC
FM070500 26006KT P6SM SKC
FM071200 VRB03KT 3SM BR BKN006
FM071700 25006KT 6SM HZ FEW008
FM071900 26012KT P6SM SKC

KONT 06/07/2020 UTC

TAF KONT 061732Z 0618/0724 VRB03KT P6SM SKC
FM062100 25012G20KT P6SM SKC
FM070400 25008KT P6SM SKC
FM070700 VRB04KT P6SM SKC
FM072000 25012G20KT P6SM SKC

KPMD 06/07/2020 UTC

TAF KPMD 061723Z 0618/0718 25012KT P6SM SKC
FM062200 25018G25KT P6SM SKC
FM070400 25012KT P6SM SKC
FM070800 20007KT P6SM SKC
FM071400 VRB03KT P6SM SKC

KSAN 06/07/2020 UTC

TAF AMD KSAN 062046Z 0620/0724 25009KT P6SM FEW007
FM070200 VRB05KT P6SM FEW010
FM070500 18006KT P6SM OVC008
FM071100 18003KT P6SM OVC006
FM071700 19005KT P6SM SCT010
FM071900 21009KT P6SM SCT010

KLAS 06/07/2020 UTC

TAF KLAS 062005Z 0620/0724 09009KT P6SM SKC
FM062100 15010G17KT P6SM SKC
FM070000 20014G23KT P6SM SKC
FM070400 22010KT P6SM SKC
FM071400 19015G24KT P6SM SKC

KOAK 06/07/2020 UTC

TAF KOAK 061735Z 0618/0724 28008KT P6SM FEW010
FM062000 27015G20KT P6SM SKC
FM070300 27014KT P6SM SKC
FM070800 27010KT P6SM SCT015
FM071200 26008KT P6SM SCT010 BKN015
FM071800 25006KT P6SM SCT015
FM072100 27012KT P6SM SKC

KSFO 06/07/2020 UTC

TAF KSFO 062038Z 0621/0724 28025G35KT P6SM SKC
FM070400 28017G24KT P6SM SKC
FM070900 28010KT P6SM SCT015
FM072100 28017G24KT P6SM SKC

KSMF 06/07/2020 UTC

TAF KSMF 062118Z 0621/0718 20010G18KT P6SM SKC
FM070000 20015G23KT P6SM SKC
FM070900 18010KT P6SM SKC

KSCK 06/07/2020 UTC

TAF KSCK 062120Z 0621/0718 28012KT P6SM SKC
FM070000 26018G25KT P6SM SKC
FM070300 26012G20KT P6SM SKC
FM070600 26012KT P6SM SKC

KFAT 06/07/2020 UTC

TAF KFAT 061720Z 0618/0718 30008KT P6SM SKC

KJFK 06/07/2020 UTC

TAF KJFK 061952Z 0620/0724 14012KT P6SM -SHRA VCTS BKN040CB
TEMPO 0620/0623 4SM TSRA BKN030CB
FM070000 12007KT P6SM FEW020 BKN080
FM070500 13005KT P6SM SCT015 OVC020
FM071400 14008KT P6SM BKN030
FM071600 14009KT P6SM BKN050 PROB30 0719/0724 6SM -SHRA

KPHL 06/07/2020 UTC

TAF KPHL 062041Z 0621/0724 05010KT 6SM SHRA VCTS SCT025CB OVC080
TEMPO 0621/0623 2SM +TSRA BKN025CB
FM062300 16007KT P6SM BKN050 BKN200
FM070200 VRB02KT P6SM SCT200
FM070600 VRB02KT 4SM BR SCT010
FM071500 18008KT P6SM SCT250

KPIT 06/07/2020 UTC

TAF KPIT 062057Z 0621/0724 30010KT P6SM SCT250
FM070000 00000KT P6SM SKC
FM072000 20003KT P6SM SCT050 PROB30 0720/0724 P6SM -TSRA
BKN050CB

KDEN 06/07/2020 UTC

TAF KDEN 062101Z 0621/0724 VRB06KT P6SM SCT100
FM062200 30012G20KT P6SM VCTS SCT100CB BKN150
TEMPO 0622/0702 VRB15G30KT BKN100CB
FM070200 17013G20KT P6SM SCT100 BKN150
FM070600 20013KT P6SM FEW150
FM071500 22009KT P6SM FEW150
FM072100 17013G20KT P6SM SCT100 BKN150

KMCI 06/07/2020 UTC

TAF KMCI 061725Z 0618/0718 08005KT P6SM SCT035 BKN250

KDFW 06/07/2020 UTC

TAF KDFW 062053Z 0621/0724 15006KT P6SM VCTS SCT030CB BKN180
TEMPO 0621/0624 VRB15G25KT 4SM -TSRA BKN030CB
FM070200 14007KT P6SM BKN090
FM071000 13007KT P6SM VCTS BKN012CB
FM071200 18009KT 6SM -SHRA VCTS BKN010CB
FM071700 20009KT P6SM BKN035

KAUS 06/07/2020 UTC

TAF AMD KAUS 061944Z 0620/0724 19008KT P6SM SCT040 BKN100
FM070800 18007KT P6SM OVC015
FM071600 19008KT P6SM SCT040 BKN120

KELP 06/07/2020 UTC

TAF KELP 061737Z 0618/0718 15008KT P6SM FEW070 FEW250
FM062200 07012KT P6SM SCT080
FM070000 02010G20KT P6SM VCTS SCT100CB BKN200
FM070600 12008KT P6SM SCT150

KIAH 06/07/2020 UTC

TAF KIAH 062101Z 0621/0724 20004KT P6SM VCTS SCT035CB BKN160
TEMPO 0621/0623 VRB15G25KT 2SM +TSRA BR BKN025CB
FM070000 VRB03KT P6SM SCT025 BKN100
FM071100 18006KT P6SM BKN020
FM071600 VRB03KT P6SM VCTS BKN035CB

KSAT 06/07/2020 UTC

TAF AMD KSAT 061945Z 0620/0724 16008KT P6SM SCT040 BKN250
TEMPO 0620/0622 -SHRA
FM070900 17007KT P6SM OVC015
FM071600 18008KT P6SM SCT040 BKN120

KTUS 06/07/2020 UTC

TAF KTUS 061733Z 0618/0718 29005KT P6SM FEW140
FM062000 32010G18KT P6SM SCT110
FM070400 24007KT P6SM SCT140
FM070700 14007KT P6SM SCT140

MMCU 06/07/2020 UTC

TAF MMCU 061624Z 0618/0718 20010KT P6SM BKN080
FM062100 06010KT P6SM SCT030 BKN250
PROB40 0623/0703 5SM TSRA BKN030CB
FM070600 00000KT P6SM BKN080
TEMPO 0712/0715 BKN020

MMHO 06/07/2020 UTC

TAF MMHO 061634Z 0618/0718 14005KT P6SM SCT080
FM062100 23015KT P6SM SCT040
FM070000 14012KT P6SM SCT030CB BKN100
PROB40 0701/0705 3SM TSRA OVC020CB
FM070600 00000KT P6SM BKN100

MMLT 06/07/2020 UTC

TAF MMLT 061720Z 0618/0718 15008KT P6SM SCT100 SCT250
BECMG 0620/0621 15010KT SCT015
TEMPO 0622/0702 BKN015 BKN100
FM070300 00000KT P6SM SCT100 BKN250
BECMG 0716/0717 15010KT

MMSD 06/07/2020 UTC

TAF MMSD 061720Z 0618/0718 12008KT P6SM SCT250
BECMG 0702/0703 33005KT
FM071700 14008KT P6SM SKC

Papua New Guinea, Southwest Pacific

The availability of aerodrome forecasts from overseas locations is dependent on the regular international exchange of data. Some locations may at times be absent. If this problem persists, please advise webav@bom.gov.au

 back to top

NWWW 06/07/2020 UTC

TAF NWWW 061700Z 0618/0718 VRB02KT 9999 FEW050 BECMG 0623/0701
15012KT BECMG 0706/0708 VRB02KT

NFFN 06/07/2020 UTC

TAF NFFN 061705Z 0618/0718
16010KT 9999 SCT028 BKN045
PROB30 TEMPO 0618/0620 5000 SHRA BKN015
BECMG 0700/0702 32010KT
PROB40 TEMPO 0700/0706 5000 SHRA BKN015
BECMG 0703/0705 15006KT

NFNA 06/07/2020 UTC

TAF NFNA 061708Z 0618/0718
10008KT 9999 -SHRA SCT018 BKN045
PROB40 TEMPO 0618/0624 5000 SHRA BKN015
FM070000 14007KT 5000 -SHRA BKN020 BKN040
TEMPO 0700/0706 3000 +SHRA BKN015

NFTF 06/07/2020 UTC

TAF NFTF 061705Z 0618/0718
05010KT 9999 FEW016 BKN100
PROB30 TEMPO 0618/0619 5000 SHRA BKN015

NSTU 06/07/2020 UTC

TAF NSTU 061740Z 0618/0718 09014G20KT P6SM VCSH SCT015 BKN040

NVVV 06/07/2020 UTC

TAF NVVV 061600Z 0618/0718 11008KT 9999 BKN020 OVC040
INTER 0618/0624 9000 SHRA BKN018 OVC038

NCRG 06/07/2020 UTC

TAF NCRG 061704Z 0618/0718
10010KT 9999 -SHRA FEW027 OVC050
PROB40 TEMPO 0618/0703 5000 SHRA BKN015

NTAA 06/07/2020 UTC

TAF NTAA 061700Z 0618/0724 VRB05KT 9999 FEW023 PROB30 TEMPO 0620/0702
05010KT FM070600 VRB05KT 9999 SCT018 BKN050 PROB30 TEMPO 0709/0724
3000 SHRA FEW010 BKN015 BKN040

NTTG

TAF not available.

NTTO

TAF not available.

NSFA 06/07/2020 UTC

TAF NSFA 061706Z 0618/0718
12010KT 9999 FEW025

ANYN

TAF not available.

AGGH 06/07/2020 UTC

TAF AGGH 061714Z 0618/0718 09012KT 9999 FEW017 BKN100 PROB40
INTER 0618/0622 5000 TSSH SCT015 FEW016CB BKN028 T 23 26 29
30 Q 1010 1012 1012 1010

AGGM 06/07/2020 UTC

TAF AGGM 061714 0618/0718 14010KT 9999 FEW017 BKN100

PROB40 INTER 0618/0622 5000 TSSH SCT015 FEW016CB BKN028

AGGN 06/07/2020 UTC

TAF AGGN 061714 0618/0718 14012KT 9999 FEW017 BKN100

PROB40 INTER 0618/0622 5000 TSSH SCT015 FEW016CB BKN028

AYPY 06/07/2020 UTC

TAF AYPY 060301Z 0606/0706 15015G26KT 9999 SCT020 SCT140

AYNZ

TAF not available.

AYMD

TAF not available.

AYMH

TAF not available.

AYTA

TAF not available.

PKMJ 06/07/2020 UTC

TAF PKMJ 061732Z 0618/0718 08010KT P6SM VCSH SCT017 BKN050 BKN110
TEMPO 0618/0621 13008KT 3SM SHRA SCT014 BKN025

NGTA 06/07/2020 UTC

TAF NGTA 061709Z 0618/0718
10010KT 9999 FEW020

PTRO 06/07/2020 UTC

TAF PTRO 061732Z 0618/0718 11004KT P6SM VCSH SCT016 SCT050

YLHI 06/07/2020 UTC

TAF YLHI 061650Z 0618/0718
20012KT 9999 -SHRA SCT030 SCT045
FM062300 21014G25KT 9999 -SHRA SCT030 SCT045
FM071200 21012KT 9999 -SHRA SCT030
INTER 0618/0712 4000 SHRA SCT015 BKN020
RMK FM070600 MOD TURB BLW 5000FT
T 17 17 18 18 Q 1022 1023 1023 1021

YSNF 06/07/2020 UTC

TAF AMD YSNF 061813Z 0618/0718
24014G25KT 9999 -SHRA SCT025
INTER 0618/0718 4000 SHRA SCT015 BKN025
RMK
T 16 16 18 17 Q 1018 1020 1019 1018

Indonesia, Timor Leste, Papua New Guinea

The availability of aerodrome forecasts from overseas locations is dependent on the regular international exchange of data. Some locations may at times be absent. If this problem persists, please advise webav@bom.gov.au

 back to top

WAAA 06/07/2020 UTC

TAF WAAA 061700Z 0618/0800 20004KT 8000 SCT019
TEMPO 0618/0622 -RA
BECMG 0701/0703 30010KT 9999

WAMM 06/07/2020 UTC

TAF WAMM 061700Z 0618/0724 VRB02KT 9999 FEW021

WAMP

TAF not available.

WAJJ 06/07/2020 UTC

TAF WAJJ 061700Z 0618/0718 00000KT 9999 FEW013
PROB40 TEMPO 0618/0621 7000 -RA
BECMG 0620/0622 12003KT
TEMPO 0705/0709 VCSH FEW012CB FEW013

WAPP 06/07/2020 UTC

TAF WAPP 061700Z 0618/0718 35010KT 7000 BKN016
TEMPO 0621/0701 4000 RA

WABB 06/07/2020 UTC

TAF WABB 061700Z 0618/0800 10004KT 9000 SCT018
TEMPO 0618/0620 RA FEW017CB
BECMG 0622/0700 31006KT

WPDL 06/07/2020 UTC

TAF WPDL 061639Z 0618/0706
15006KT CAVOK
FM070000 30008KT 9999 SCT040
RMK
T 24 23 28 31 Q 1012 1011 1012 1011

WATT 06/07/2020 UTC

TAF WATT 061700Z 0618/0718 10012KT 8000 FEW018
BECMG 0702/0704 11022KT
BECMG 0711/0713 10010KT

WIII 06/07/2020 UTC

TAF WIII 061700Z 0618/0800 13005KT 6000 SCT020
TEMPO 0618/0622 4000 -TSRA FEW015CB

WIHH 06/07/2020 UTC

TAF WIHH 061700Z 0618/0718 12006KT 5000 HZ SCT020 TEMPO 0618/0620 09007KT 4000 -RA BECMG
0703/0705 18010KT 6000

WIMM 06/07/2020 UTC

TAF WIMM 061700Z 0618/0718 VRB04KT 4000 BR SCT018
BECMG 0702/0704 10009KT 9000
TEMPO 0710/0714 22015KT 4000 -TSRA FEW016CB
BECMG 0714/0715 VRB05KT SCT017

WARR 06/07/2020 UTC

TAF WARR 061700Z 0618/0718 24005KT 4000 HZ SCT020
PROB40 TEMPO 0618/0622 4000 TSRA FEW018CB
BECMG 0700/0702 09010KT 9999 NSW

WADD 06/07/2020 UTC

TAF WADD 061700Z 0618/0718 11012KT 9999 SCT017
TEMPO 0620/0700 BKN016

AYPY 06/07/2020 UTC

TAF AYPY 060301Z 0606/0706 15015G26KT 9999 SCT020 SCT140

AYNZ

TAF not available.

AYMH

TAF not available.

AYMD

TAF not available.

AYHK

TAF not available.

AYTK

TAF not available.

AYVN

TAF not available.

AYWK

TAF not available.

AYGA

TAF not available.

AYDU

TAF not available.

AYMS

TAF not available.

AYRB

TAF not available.

AYTB

TAF not available.

AYKI

TAF not available.

AYKT

TAF not available.

AYBK

TAF not available.

AYKM

TAF not available.

AYKY

TAF not available.

AYMO

TAF not available.

AYKV

TAF not available.

Accessing this Service

By entering this site, you acknowledge that this information is produced solely for use by the aviation industry, and you are aware that any information for the purposes of flight planning should be obtained from Airservices Australia.